Observation data for Spur on 01/11/2018      Previous  Date  Next       Current Mesonet Observations  Soil Data  Daily Summary Page  Observations in Plain Language
KSP1 110600Z 23015G21KT 11/02 A2958 RMK A01 T01080023  RH  056%=      5-min Rain = 0
KSP1 110605Z 23016G23KT 11/02 A2958 RMK A01 T01090021  RH  055%=      5-min Rain = 0
KSP1 110610Z 23016G24KT 11/02 A2958 RMK A01 T01110020  RH  054%=      5-min Rain = 0
KSP1 110615Z 23015G21KT 11/02 A2958 RMK A01 T01120020  RH  054%=      5-min Rain = 0
KSP1 110620Z 23017G23KT 11/02 A2958 RMK A01 T01120018  RH  053%=      5-min Rain = 0
KSP1 110625Z 23018G28KT 11/02 A2958 RMK A01 T01140016  RH  051%=      5-min Rain = 0
KSP1 110630Z 23018G27KT 12/01 A2958 RMK A01 T01160014  RH  050%=      5-min Rain = 0
KSP1 110635Z 23018G29KT 12/01 A2958 RMK A01 T01170012  RH  049%=      5-min Rain = 0
KSP1 110640Z 23017G24KT 12/01 A2958 RMK A01 T01160011  RH  049%=      5-min Rain = 0
KSP1 110645Z 23018G27KT 12/01 A2958 RMK A01 T01160011  RH  049%=      5-min Rain = 0
KSP1 110650Z 23017G22KT 12/01 A2958 RMK A01 T01150011  RH  049%=      5-min Rain = 0
KSP1 110655Z 24018G24KT 11/01 A2958 RMK A01 T01140010  RH  049%=      5-min Rain = 0
KSP1 110700Z 24016G23KT 11/01 A2958 RMK A01 T01140009  RH  049%=      5-min Rain = 0
KSP1 110705Z 24016G22KT 11/01 A2958 RMK A01 T01120009  RH  050%=      5-min Rain = 0
KSP1 110710Z 24014G21KT 11/01 A2958 RMK A01 T01110008  RH  049%=      5-min Rain = 0
KSP1 110715Z 24013KT 11/01 A2958 RMK A01 T01100008  RH  050%=      5-min Rain = 0
KSP1 110720Z 23014G20KT 11/01 A2958 RMK A01 T01080007  RH  050%=      5-min Rain = 0
KSP1 110725Z 23013G20KT 11/01 A2958 RMK A01 T01080007  RH  050%=      5-min Rain = 0
KSP1 110730Z 23014G20KT 11/01 A2958 RMK A01 T01070007  RH  051%=      5-min Rain = 0
KSP1 110735Z 23013G21KT 11/01 A2958 RMK A01 T01050007  RH  051%=      5-min Rain = 0
KSP1 110740Z 24014G22KT 11/01 A2958 RMK A01 T01050007  RH  051%=      5-min Rain = 0
KSP1 110745Z 23014KT 10/01 A2958 RMK A01 T01040007  RH  051%=      5-min Rain = 0
KSP1 110750Z 23012G17KT 10/01 A2959 RMK A01 T01040006  RH  051%=      5-min Rain = 0
KSP1 110755Z 23013G20KT 10/01 A2959 RMK A01 T01020006  RH  052%=      5-min Rain = 0
KSP1 110800Z 24013G20KT 10/01 A2959 RMK A01 T01030006  RH  052%=      5-min Rain = 0
KSP1 110805Z 24014G23KT 10/01 A2959 RMK A01 T01030006  RH  052%=      5-min Rain = 0
KSP1 110810Z 24014G21KT 10/01 A2959 RMK A01 T01040005  RH  051%=      5-min Rain = 0
KSP1 110815Z 24015G22KT 10/00 A2958 RMK A01 T01040004  RH  051%=      5-min Rain = 0
KSP1 110820Z 24016G22KT 11/00 A2958 RMK A01 T01050004  RH  050%=      5-min Rain = 0
KSP1 110825Z 24017G23KT 11/00 A2958 RMK A01 T01050004  RH  050%=      5-min Rain = 0
KSP1 110830Z 24016G22KT 11/00 A2958 RMK A01 T01060003  RH  049%=      5-min Rain = 0
KSP1 110835Z 24015G20KT 11/00 A2958 RMK A01 T01070003  RH  049%=      5-min Rain = 0
KSP1 110840Z 24016G21KT 11/00 A2958 RMK A01 T01080002  RH  049%=      5-min Rain = 0
KSP1 110845Z 24016G24KT 11/00 A2958 RMK A01 T01080002  RH  048%=      5-min Rain = 0
KSP1 110850Z 24014G22KT 11/00 A2958 RMK A01 T01070002  RH  049%=      5-min Rain = 0
KSP1 110855Z 25015G20KT 11/00 A2958 RMK A01 T01080002  RH  048%=      5-min Rain = 0
KSP1 110900Z 25015G23KT 11/00 A2958 RMK A01 T01080002  RH  048%=      5-min Rain = 0
KSP1 110905Z 25015G21KT 11/00 A2959 RMK A01 T01090001  RH  048%=      5-min Rain = 0
KSP1 110910Z 26015G25KT 11/00 A2959 RMK A01 T01100001  RH  048%=      5-min Rain = 0
KSP1 110915Z 26017G24KT 11/00 A2959 RMK A01 T01100001  RH  048%=      5-min Rain = 0
KSP1 110920Z 26015G22KT 11/00 A296 RMK A01 T01080001  RH  048%=      5-min Rain = 0
KSP1 110925Z 26016G22KT 11/00 A296 RMK A01 T01070001  RH  048%=      5-min Rain = 0
KSP1 110930Z 27015G22KT 11/00 A296 RMK A01 T01060001  RH  049%=      5-min Rain = 0
KSP1 110935Z 27014G22KT 11/00 A296 RMK A01 T01050001  RH  049%=      5-min Rain = 0
KSP1 110940Z 26015G22KT 10/00 A296 RMK A01 T01040001  RH  049%=      5-min Rain = 0
KSP1 110945Z 27010G16KT 10/00 A2961 RMK A01 T01030001  RH  050%=      5-min Rain = 0
KSP1 110950Z 27010G15KT 10/00 A2961 RMK A01 T01010002  RH  051%=      5-min Rain = 0
KSP1 110955Z 27011G19KT 10/00 A2961 RMK A01 T01030002  RH  050%=      5-min Rain = 0
KSP1 111000Z 27011G17KT 11/00 A2962 RMK A01 T01050002  RH  050%=      5-min Rain = 0
KSP1 111005Z 27011G17KT 11/00 A2962 RMK A01 T01050002  RH  049%=      5-min Rain = 0
KSP1 111010Z 27011G17KT 11/00 A2962 RMK A01 T01060002  RH  049%=      5-min Rain = 0
KSP1 111015Z 27012G19KT 11/00 A2963 RMK A01 T01050002  RH  049%=      5-min Rain = 0
KSP1 111020Z 28011G17KT 11/00 A2963 RMK A01 T01060002  RH  049%=      5-min Rain = 0
KSP1 111025Z 28010G15KT 11/00 A2963 RMK A01 T01050002  RH  050%=      5-min Rain = 0
KSP1 111030Z 28010KT 11/00 A2963 RMK A01 T01060003  RH  050%=      5-min Rain = 0
KSP1 111035Z 27009G14KT 11/00 A2963 RMK A01 T01050003  RH  050%=      5-min Rain = 0
KSP1 111040Z 28010KT 10/00 A2963 RMK A01 T01040003  RH  050%=      5-min Rain = 0
KSP1 111045Z 28009G15KT 11/00 A2963 RMK A01 T01050004  RH  050%=      5-min Rain = 0
KSP1 111050Z 29011KT 11/01 A2964 RMK A01 T01060006  RH  050%=      5-min Rain = 0
KSP1 111055Z 29011G16KT 11/01 A2964 RMK A01 T01050006  RH  051%=      5-min Rain = 0
KSP1 111100Z 31012G17KT 11/01 A2964 RMK A01 T01050007  RH  051%=      5-min Rain = 0
KSP1 111105Z 32015G21KT 10/01 A2965 RMK A01 T01040014  RH  055%=      5-min Rain = 0
KSP1 111110Z 33019G27KT 11/03 A2965 RMK A01 T01050025  RH  058%=      5-min Rain = 0
KSP1 111115Z 33020G27KT 11/03 A2965 RMK A01 T01050026  RH  059%=      5-min Rain = 0
KSP1 111120Z 33017G24KT 10/03 A2966 RMK A01 T01040027  RH  060%=      5-min Rain = 0
KSP1 111125Z 33016G21KT 10/03 A2967 RMK A01 T01040027  RH  060%=      5-min Rain = 0
KSP1 111130Z 33015G21KT 10/03 A2967 RMK A01 T01030026  RH  059%=      5-min Rain = 0
KSP1 111135Z 35017G27KT 10/02 A2968 RMK A01 T01000024  RH  060%=      5-min Rain = 0
KSP1 111140Z 35017G23KT 10/02 A2969 RMK A01 T00960021  RH  060%=      5-min Rain = 0
KSP1 111145Z 36017G24KT 09/02 A2969 RMK A01 T00920017  RH  060%=      5-min Rain = 0
KSP1 111150Z 35016G21KT 09/01 A297 RMK A01 T00880013  RH  060%=      5-min Rain = 0
KSP1 111155Z 36014KT 08/01 A2971 RMK A01 T00840012  RH  061%=      5-min Rain = 0
KSP1 111200Z 36014G22KT 08/01 A2972 RMK A01 T00830011  RH  061%=      5-min Rain = 0
KSP1 111205Z 36014KT 08/01 A2972 RMK A01 T00810010  RH  061%=      5-min Rain = 0
KSP1 111210Z 01015G20KT 08/01 A2973 RMK A01 T00780007  RH  061%=      5-min Rain = 0
KSP1 111215Z 00014G21KT 07/00 A2974 RMK A01 T00740004  RH  062%=      5-min Rain = 0
KSP1 111220Z 01019G29KT 07/M00 A2975 RMK A01 T00711002  RH  060%=      5-min Rain = 0
KSP1 111225Z 36019G27KT 06/M01 A2975 RMK A01 T00631011  RH  060%=      5-min Rain = 0
KSP1 111230Z 36015G21KT 06/M01 A2976 RMK A01 T00581013  RH  061%=      5-min Rain = 0
KSP1 111235Z 36018G24KT 05/M02 A2976 RMK A01 T00541015  RH  061%=      5-min Rain = 0
KSP1 111240Z 35016G24KT 05/M02 A2977 RMK A01 T00521016  RH  062%=      5-min Rain = 0
KSP1 111245Z 35013G23KT 05/M02 A2977 RMK A01 T00511015  RH  063%=      5-min Rain = 0
KSP1 111250Z 34009KT 05/M02 A2978 RMK A01 T00481015  RH  064%=      5-min Rain = 0
KSP1 111255Z 34012G17KT 05/M02 A2978 RMK A01 T00481015  RH  064%=      5-min Rain = 0
KSP1 111300Z 33018G27KT 05/M02 A2979 RMK A01 T00471016  RH  064%=      5-min Rain = 0
KSP1 111305Z 34020G29KT 05/M02 A2979 RMK A01 T00461016  RH  065%=      5-min Rain = 0
KSP1 111310Z 34019G26KT 04/M02 A298 RMK A01 T00441017  RH  065%=      5-min Rain = 0
KSP1 111315Z 35021G29KT 04/M02 A2981 RMK A01 T00431019  RH  065%=      5-min Rain = 0
KSP1 111320Z 36021G29KT 04/M02 A2982 RMK A01 T00421020  RH  065%=      5-min Rain = 0
KSP1 111325Z 35022G31KT 04/M02 A2982 RMK A01 T00401022  RH  065%=      5-min Rain = 0
KSP1 111330Z 35021G29KT 04/M02 A2982 RMK A01 T00381024  RH  064%=      5-min Rain = 0
KSP1 111335Z 35017G23KT 04/M03 A2983 RMK A01 T00371025  RH  065%=      5-min Rain = 0
KSP1 111340Z 35013KT 04/M03 A2984 RMK A01 T00371025  RH  065%=      5-min Rain = 0
KSP1 111345Z 34014G23KT 04/M03 A2985 RMK A01 T00371026  RH  064%=      5-min Rain = 0
KSP1 111350Z 35013KT 04/M03 A2985 RMK A01 T00371028  RH  063%=      5-min Rain = 0
KSP1 111355Z 36012G17KT 04/M03 A2986 RMK A01 T00361028  RH  063%=      5-min Rain = 0
KSP1 111400Z 00014G21KT 04/M03 A2986 RMK A01 T00351030  RH  063%=      5-min Rain = 0
KSP1 111405Z 01018G25KT 03/M03 A2986 RMK A01 T00321033  RH  063%=      5-min Rain = 0
KSP1 111410Z 00014G22KT 03/M04 A2987 RMK A01 T00291035  RH  064%=      5-min Rain = 0
KSP1 111415Z 00013KT 03/M04 A2987 RMK A01 T00261037  RH  064%=      5-min Rain = 0
KSP1 111420Z 01015G20KT 02/M04 A2988 RMK A01 T00241038  RH  064%=      5-min Rain = 0
KSP1 111425Z 01014G19KT 02/M04 A2989 RMK A01 T00231039  RH  064%=      5-min Rain = 0
KSP1 111430Z 36011KT 02/M04 A299 RMK A01 T00231038  RH  064%=      5-min Rain = 0
KSP1 111435Z 35016G30KT 02/M04 A2991 RMK A01 T00241039  RH  064%=      5-min Rain = 0
KSP1 111440Z 01020G28KT 02/M04 A2991 RMK A01 T00241041  RH  063%=      5-min Rain = 0
KSP1 111445Z 01020G27KT 02/M04 A2992 RMK A01 T00221044  RH  062%=      5-min Rain = 0
KSP1 111450Z 00015G22KT 02/M05 A2992 RMK A01 T00211045  RH  062%=      5-min Rain = 0
KSP1 111455Z 36015G22KT 02/M05 A2993 RMK A01 T00211046  RH  062%=      5-min Rain = 0
KSP1 111500Z 00015G22KT 02/M05 A2994 RMK A01 T00211046  RH  062%=      5-min Rain = 0
KSP1 111505Z 35018G25KT 02/M05 A2995 RMK A01 T00221046  RH  061%=      5-min Rain = 0
KSP1 111510Z 35020G26KT 02/M05 A2995 RMK A01 T00211049  RH  061%=      5-min Rain = 0
KSP1 111515Z 00021G31KT 02/M05 A2996 RMK A01 T00191051  RH  061%=      5-min Rain = 0
KSP1 111520Z 00020G26KT 02/M05 A2996 RMK A01 T00181052  RH  060%=      5-min Rain = 0
KSP1 111525Z 00017G25KT 02/M05 A2997 RMK A01 T00171053  RH  060%=      5-min Rain = 0
KSP1 111530Z 00015G21KT 02/M05 A2997 RMK A01 T00171053  RH  060%=      5-min Rain = 0
KSP1 111535Z 00014G22KT 02/M05 A2997 RMK A01 T00181053  RH  060%=      5-min Rain = 0
KSP1 111540Z 01015G22KT 02/M05 A2997 RMK A01 T00181053  RH  060%=      5-min Rain = 0
KSP1 111545Z 36015G20KT 02/M05 A2997 RMK A01 T00191053  RH  060%=      5-min Rain = 0
KSP1 111550Z 35015G21KT 02/M05 A2998 RMK A01 T00201053  RH  059%=      5-min Rain = 0
KSP1 111555Z 35016G24KT 02/M05 A2999 RMK A01 T00221053  RH  058%=      5-min Rain = 0
KSP1 111600Z 35021G28KT 02/M06 A2999 RMK A01 T00241055  RH  057%=      5-min Rain = 0
KSP1 111605Z 35023G33KT 02/M06 A30 RMK A01 T00241057  RH  056%=      5-min Rain = 0
KSP1 111610Z 36024G34KT 03/M06 A3001 RMK A01 T00251060  RH  054%=      5-min Rain = 0
KSP1 111615Z 01022G32KT 03/M06 A3002 RMK A01 T00251061  RH  054%=      5-min Rain = 0
KSP1 111620Z 36018G27KT 03/M06 A3002 RMK A01 T00261061  RH  053%=      5-min Rain = 0
KSP1 111625Z 35023G34KT 03/M06 A3003 RMK A01 T00301062  RH  051%=      5-min Rain = 0
KSP1 111630Z 36022G30KT 03/M07 A3004 RMK A01 T00311066  RH  049%=      5-min Rain = 0
KSP1 111635Z 36021G32KT 03/M07 A3005 RMK A01 T00331068  RH  048%=      5-min Rain = 0
KSP1 111640Z 36025G31KT 03/M07 A3005 RMK A01 T00321072  RH  047%=      5-min Rain = 0
KSP1 111645Z 00022G36KT 03/M07 A3006 RMK A01 T00301074  RH  047%=      5-min Rain = 0
KSP1 111650Z 00018G25KT 03/M07 A3006 RMK A01 T00311074  RH  046%=      5-min Rain = 0
KSP1 111655Z 00017G25KT 03/M07 A3006 RMK A01 T00331074  RH  046%=      5-min Rain = 0
KSP1 111700Z 35020G25KT 03/M07 A3006 RMK A01 T00331074  RH  046%=      5-min Rain = 0
KSP1 111705Z 35023G32KT 03/M07 A3006 RMK A01 T00341074  RH  045%=      5-min Rain = 0
KSP1 111710Z 01019G29KT 04/M08 A3006 RMK A01 T00361075  RH  044%=      5-min Rain = 0
KSP1 111715Z 36020G25KT 04/M08 A3007 RMK A01 T00411076  RH  043%=      5-min Rain = 0
KSP1 111720Z 36021G30KT 04/M08 A3007 RMK A01 T00431076  RH  042%=      5-min Rain = 0
KSP1 111725Z 35022G31KT 04/M08 A3007 RMK A01 T00431076  RH  042%=      5-min Rain = 0
KSP1 111730Z 00019G31KT 05/M08 A3008 RMK A01 T00481075  RH  041%=      5-min Rain = 0
KSP1 111735Z 00021G30KT 05/M08 A3008 RMK A01 T00471076  RH  041%=      5-min Rain = 0
KSP1 111740Z 01022G31KT 05/M08 A3008 RMK A01 T00461079  RH  040%=      5-min Rain = 0
KSP1 111745Z 00020G26KT 05/M08 A3008 RMK A01 T00501081  RH  039%=      5-min Rain = 0
KSP1 111750Z 01021G27KT 05/M08 A3008 RMK A01 T00521084  RH  037%=      5-min Rain = 0
KSP1 111755Z 36020G27KT 05/M09 A3009 RMK A01 T00541088  RH  036%=      5-min Rain = 0
KSP1 111800Z 00021G31KT 06/M09 A3009 RMK A01 T00551092  RH  034%=      5-min Rain = 0
KSP1 111805Z 36023G36KT 06/M09 A3009 RMK A01 T00581093  RH  033%=      5-min Rain = 0
KSP1 111810Z 36027G37KT 06/M10 A3009 RMK A01 T00581097  RH  032%=      5-min Rain = 0
KSP1 111815Z 00024G32KT 06/M10 A3009 RMK A01 T00571098  RH  032%=      5-min Rain = 0
KSP1 111820Z 01021G29KT 06/M10 A3009 RMK A01 T00601097  RH  032%=      5-min Rain = 0
KSP1 111825Z 01019G29KT 06/M10 A3008 RMK A01 T00631097  RH  031%=      5-min Rain = 0
KSP1 111830Z 36020G26KT 07/M10 A3009 RMK A01 T00651096  RH  031%=      5-min Rain = 0
KSP1 111835Z 36022G33KT 07/M10 A3009 RMK A01 T00691096  RH  030%=      5-min Rain = 0
KSP1 111840Z 00023G31KT 07/M10 A3009 RMK A01 T00681099  RH  030%=      5-min Rain = 0
KSP1 111845Z 35024G38KT 07/M10 A3009 RMK A01 T00701100  RH  029%=      5-min Rain = 0
KSP1 111850Z 00026G34KT 07/M10 A3009 RMK A01 T00661104  RH  029%=      5-min Rain = 0
KSP1 111855Z 01023G32KT 07/M11 A3009 RMK A01 T00661105  RH  029%=      5-min Rain = 0
KSP1 111900Z 02022G29KT 07/M11 A301 RMK A01 T00691105  RH  028%=      5-min Rain = 0
KSP1 111905Z 00019G28KT 07/M10 A301 RMK A01 T00731103  RH  028%=      5-min Rain = 0
KSP1 111910Z 00023G36KT 08/M11 A301 RMK A01 T00791107  RH  026%=      5-min Rain = 0
KSP1 111915Z 36024G31KT 08/M11 A301 RMK A01 T00781111  RH  025%=      5-min Rain = 0
KSP1 111920Z 00021G31KT 08/M11 A301 RMK A01 T00791111  RH  025%=      5-min Rain = 0
KSP1 111925Z 00024G32KT 08/M11 A301 RMK A01 T00801112  RH  025%=      5-min Rain = 0
KSP1 111930Z 01018G27KT 08/M11 A301 RMK A01 T00811110  RH  025%=      5-min Rain = 0
KSP1 111935Z 00024G32KT 08/M11 A301 RMK A01 T00831111  RH  024%=      5-min Rain = 0
KSP1 111940Z 35024G33KT 08/M11 A301 RMK A01 T00781111  RH  025%=      5-min Rain = 0
KSP1 111945Z 00024G35KT 08/M11 A3011 RMK A01 T00781112  RH  025%=      5-min Rain = 0
KSP1 111950Z 01025G33KT 07/M11 A3011 RMK A01 T00741113  RH  025%=      5-min Rain = 0
KSP1 111955Z 36024G34KT 08/M11 A3011 RMK A01 T00751113  RH  025%=      5-min Rain = 0
KSP1 112000Z 01025G33KT 08/M12 A3011 RMK A01 T00751115  RH  025%=      5-min Rain = 0
KSP1 112005Z 36024G35KT 08/M12 A3011 RMK A01 T00761115  RH  025%=      5-min Rain = 0
KSP1 112010Z 00024G32KT 08/M12 A3011 RMK A01 T00761116  RH  024%=      5-min Rain = 0
KSP1 112015Z 00021G29KT 08/M12 A3011 RMK A01 T00791115  RH  024%=      5-min Rain = 0
KSP1 112020Z 01022G32KT 08/M12 A3011 RMK A01 T00811115  RH  024%=      5-min Rain = 0
KSP1 112025Z 00024G30KT 08/M12 A3012 RMK A01 T00791116  RH  024%=      5-min Rain = 0
KSP1 112030Z 00019G28KT 08/M12 A3011 RMK A01 T00821115  RH  024%=      5-min Rain = 0
KSP1 112035Z 00021G29KT 09/M12 A3012 RMK A01 T00871115  RH  023%=      5-min Rain = 0
KSP1 112040Z 00020G26KT 09/M11 A3012 RMK A01 T00851114  RH  023%=      5-min Rain = 0
KSP1 112045Z 01019G26KT 09/M11 A3012 RMK A01 T00861114  RH  023%=      5-min Rain = 0
KSP1 112050Z 01020G26KT 09/M11 A3012 RMK A01 T00861114  RH  023%=      5-min Rain = 0
KSP1 112055Z 01018G26KT 09/M11 A3013 RMK A01 T00871112  RH  023%=      5-min Rain = 0
KSP1 112100Z 36023G32KT 09/M12 A3013 RMK A01 T00881116  RH  023%=      5-min Rain = 0
KSP1 112105Z 01022G31KT 09/M12 A3013 RMK A01 T00871117  RH  023%=      5-min Rain = 0
KSP1 112110Z 35024G32KT 09/M12 A3013 RMK A01 T00871118  RH  022%=      5-min Rain = 0
KSP1 112115Z 01022G32KT 09/M12 A3013 RMK A01 T00861120  RH  022%=      5-min Rain = 0
KSP1 112120Z 01019G26KT 09/M12 A3014 RMK A01 T00861116  RH  023%=      5-min Rain = 0
KSP1 112125Z 00018G26KT 09/M11 A3014 RMK A01 T00871114  RH  023%=      5-min Rain = 0
KSP1 112130Z 36022G30KT 09/M12 A3014 RMK A01 T00891118  RH  022%=      5-min Rain = 0
KSP1 112135Z 00022G31KT 09/M12 A3014 RMK A01 T00851120  RH  022%=      5-min Rain = 0
KSP1 112140Z 00021G28KT 09/M12 A3015 RMK A01 T00861119  RH  022%=      5-min Rain = 0
KSP1 112145Z 01021G31KT 09/M12 A3015 RMK A01 T00851119  RH  022%=      5-min Rain = 0
KSP1 112150Z 01021G32KT 09/M12 A3015 RMK A01 T00861121  RH  022%=      5-min Rain = 0
KSP1 112155Z 01020G29KT 09/M12 A3015 RMK A01 T00851120  RH  022%=      5-min Rain = 0
KSP1 112200Z 01021G30KT 09/M12 A3016 RMK A01 T00851120  RH  022%=      5-min Rain = 0
KSP1 112205Z 01018G25KT 09/M12 A3016 RMK A01 T00851117  RH  023%=      5-min Rain = 0
KSP1 112210Z 01018G26KT 08/M12 A3016 RMK A01 T00841116  RH  023%=      5-min Rain = 0
KSP1 112215Z 01017G23KT 08/M11 A3016 RMK A01 T00831114  RH  024%=      5-min Rain = 0
KSP1 112220Z 01017G25KT 08/M11 A3016 RMK A01 T00831112  RH  024%=      5-min Rain = 0
KSP1 112225Z 01020G27KT 08/M11 A3016 RMK A01 T00841112  RH  024%=      5-min Rain = 0
KSP1 112230Z 01019G26KT 08/M11 A3017 RMK A01 T00841112  RH  024%=      5-min Rain = 0
KSP1 112235Z 36019G27KT 08/M11 A3017 RMK A01 T00841112  RH  024%=      5-min Rain = 0
KSP1 112240Z 36020G27KT 08/M12 A3018 RMK A01 T00831115  RH  024%=      5-min Rain = 0
KSP1 112245Z 00021G30KT 08/M12 A3018 RMK A01 T00801122  RH  023%=      5-min Rain = 0
KSP1 112250Z 01021G29KT 08/M12 A3018 RMK A01 T00781123  RH  023%=      5-min Rain = 0
KSP1 112255Z 01019G25KT 08/M12 A3019 RMK A01 T00761120  RH  024%=      5-min Rain = 0
KSP1 112300Z 01018G24KT 08/M12 A3019 RMK A01 T00751119  RH  024%=      5-min Rain = 0
KSP1 112305Z 02016G22KT 07/M12 A3019 RMK A01 T00741117  RH  025%=      5-min Rain = 0
KSP1 112310Z 01015G21KT 07/M12 A3019 RMK A01 T00731116  RH  025%=      5-min Rain = 0
KSP1 112315Z 00012G19KT 07/M12 A302 RMK A01 T00731115  RH  025%=      5-min Rain = 0
KSP1 112320Z 01015G20KT 07/M11 A302 RMK A01 T00721113  RH  026%=      5-min Rain = 0
KSP1 112325Z 00013G20KT 07/M11 A302 RMK A01 T00711112  RH  026%=      5-min Rain = 0
KSP1 112330Z 00012G17KT 07/M11 A302 RMK A01 T00691111  RH  027%=      5-min Rain = 0
KSP1 112335Z 00012G18KT 07/M11 A302 RMK A01 T00691111  RH  027%=      5-min Rain = 0
KSP1 112340Z 36009KT 07/M11 A3021 RMK A01 T00671111  RH  027%=      5-min Rain = 0
KSP1 112345Z 36009KT 07/M11 A3021 RMK A01 T00661110  RH  028%=      5-min Rain = 0
KSP1 112350Z 36008KT 06/M11 A3021 RMK A01 T00631110  RH  028%=      5-min Rain = 0
KSP1 112355Z 00008KT 06/M11 A3021 RMK A01 T00611110  RH  028%=      5-min Rain = 0
KSP1 120000Z 00008KT 06/M11 A3022 RMK A01 T00591110  RH  029%=      5-min Rain = 0
KSP1 120005Z 00009KT 06/M11 A3022 RMK A01 T00581110  RH  029%=      5-min Rain = 0
KSP1 120010Z 00008KT 06/M11 A3022 RMK A01 T00561110  RH  029%=      5-min Rain = 0
KSP1 120015Z 00008KT 05/M11 A3022 RMK A01 T00541110  RH  030%=      5-min Rain = 0
KSP1 120020Z 36006KT 05/M11 A3022 RMK A01 T00511111  RH  030%=      5-min Rain = 0
KSP1 120025Z 35005KT 05/M11 A3023 RMK A01 T00461112  RH  031%=      5-min Rain = 0
KSP1 120030Z 35005KT 04/M11 A3023 RMK A01 T00401113  RH  032%=      5-min Rain = 0
KSP1 120035Z 35004KT 04/M11 A3023 RMK A01 T00351113  RH  033%=      5-min Rain = 0
KSP1 120040Z 35004KT 03/M12 A3023 RMK A01 T00301115  RH  034%=      5-min Rain = 0
KSP1 120045Z 35005KT 02/M12 A3023 RMK A01 T00241115  RH  035%=      5-min Rain = 0
KSP1 120050Z 35005KT 02/M11 A3023 RMK A01 T00211113  RH  037%=      5-min Rain = 0
KSP1 120055Z 34006KT 02/M11 A3024 RMK A01 T00211113  RH  037%=      5-min Rain = 0
KSP1 120100Z 34006KT 02/M11 A3024 RMK A01 T00171114  RH  038%=      5-min Rain = 0
KSP1 120105Z 34006KT 01/M12 A3024 RMK A01 T00131115  RH  039%=      5-min Rain = 0
KSP1 120110Z 34006KT 01/M11 A3024 RMK A01 T00101114  RH  040%=      5-min Rain = 0
KSP1 120115Z 34006KT 01/M11 A3024 RMK A01 T00071114  RH  040%=      5-min Rain = 0
KSP1 120120Z 35005KT 01/M11 A3024 RMK A01 T00061113  RH  041%=      5-min Rain = 0
KSP1 120125Z 33005KT 01/M11 A3025 RMK A01 T00071113  RH  041%=      5-min Rain = 0
KSP1 120130Z 32005KT 01/M11 A3025 RMK A01 T00061112  RH  041%=      5-min Rain = 0
KSP1 120135Z 31006KT 01/M11 A3025 RMK A01 T00071112  RH  041%=      5-min Rain = 0
KSP1 120140Z 31007KT 01/M11 A3026 RMK A01 T00101110  RH  041%=      5-min Rain = 0
KSP1 120145Z 32007KT 01/M11 A3026 RMK A01 T00121110  RH  040%=      5-min Rain = 0
KSP1 120150Z 32007KT 01/M11 A3026 RMK A01 T00101111  RH  040%=      5-min Rain = 0
KSP1 120155Z 32007KT 01/M11 A3026 RMK A01 T00051112  RH  041%=      5-min Rain = 0
KSP1 120200Z 32007KT 00/M11 A3026 RMK A01 T00011113  RH  043%=      5-min Rain = 0
KSP1 120205Z 31006KT M00/M11 A3027 RMK A01 T10031113  RH  044%=      5-min Rain = 0
KSP1 120210Z 30006KT M01/M11 A3027 RMK A01 T10061113  RH  045%=      5-min Rain = 0
KSP1 120215Z 30006KT M01/M11 A3027 RMK A01 T10061111  RH  045%=      5-min Rain = 0
KSP1 120220Z 31007KT M00/M11 A3027 RMK A01 T10041112  RH  045%=      5-min Rain = 0
KSP1 120225Z 33007KT M01/M11 A3027 RMK A01 T10081114  RH  045%=      5-min Rain = 0
KSP1 120230Z 34007KT M01/M11 A3027 RMK A01 T10111114  RH  046%=      5-min Rain = 0
KSP1 120235Z 34007KT M02/M11 A3027 RMK A01 T10151114  RH  047%=      5-min Rain = 0
KSP1 120240Z 31005KT M02/M11 A3027 RMK A01 T10151113  RH  048%=      5-min Rain = 0
KSP1 120245Z 31007KT M01/M11 A3028 RMK A01 T10141113  RH  047%=      5-min Rain = 0
KSP1 120250Z 33007KT M02/M11 A3028 RMK A01 T10151113  RH  048%=      5-min Rain = 0
KSP1 120255Z 36007KT M01/M11 A3028 RMK A01 T10141111  RH  048%=      5-min Rain = 0
KSP1 120300Z 01005KT M01/M11 A3028 RMK A01 T10101112  RH  046%=      5-min Rain = 0
KSP1 120305Z 03005KT M02/M12 A3028 RMK A01 T10171117  RH  047%=      5-min Rain = 0
KSP1 120310Z 04004KT M02/M11 A3028 RMK A01 T10181113  RH  049%=      5-min Rain = 0
KSP1 120315Z 01004KT M02/M11 A3028 RMK A01 T10151111  RH  049%=      5-min Rain = 0
KSP1 120320Z 33004KT M01/M11 A3028 RMK A01 T10141110  RH  049%=      5-min Rain = 0
KSP1 120325Z 33005KT M02/M11 A3028 RMK A01 T10161113  RH  048%=      5-min Rain = 0
KSP1 120330Z 34005KT M03/M12 A3028 RMK A01 T10251118  RH  050%=      5-min Rain = 0
KSP1 120335Z 00006KT M03/M11 A3028 RMK A01 T10301114  RH  053%=      5-min Rain = 0
KSP1 120340Z 02006KT M02/M11 A3028 RMK A01 T10231110  RH  052%=      5-min Rain = 0
KSP1 120345Z 02006KT M03/M12 A3028 RMK A01 T10261116  RH  051%=      5-min Rain = 0
KSP1 120350Z 34005KT M02/M11 A3028 RMK A01 T10241110  RH  052%=      5-min Rain = 0
KSP1 120355Z 32006KT M02/M11 A3029 RMK A01 T10241110  RH  052%=      5-min Rain = 0
KSP1 120400Z 35007KT M02/M11 A3029 RMK A01 T10161106  RH  051%=      5-min Rain = 0
KSP1 120405Z 35005KT M01/M11 A3029 RMK A01 T10131107  RH  050%=      5-min Rain = 0
KSP1 120410Z 33004KT M02/M11 A3029 RMK A01 T10151107  RH  050%=      5-min Rain = 0
KSP1 120415Z 34004KT M02/M11 A3029 RMK A01 T10161108  RH  050%=      5-min Rain = 0
KSP1 120420Z 33004KT M02/M11 A3029 RMK A01 T10181108  RH  051%=      5-min Rain = 0
KSP1 120425Z 35005KT M02/M11 A3029 RMK A01 T10201110  RH  051%=      5-min Rain = 0
KSP1 120430Z 34005KT M02/M11 A3028 RMK A01 T10231111  RH  052%=      5-min Rain = 0
KSP1 120435Z 34005KT M03/M11 A3028 RMK A01 T10281112  RH  053%=      5-min Rain = 0
KSP1 120440Z 35007KT M03/M11 A3028 RMK A01 T10291110  RH  055%=      5-min Rain = 0
KSP1 120445Z 35007KT M03/M11 A3028 RMK A01 T10311111  RH  054%=      5-min Rain = 0
KSP1 120450Z 34007KT M03/M11 A3029 RMK A01 T10341110  RH  057%=      5-min Rain = 0
KSP1 120455Z 34007KT M04/M11 A3028 RMK A01 T10351111  RH  056%=      5-min Rain = 0
KSP1 120500Z 34007KT M04/M11 A3028 RMK A01 T10371111  RH  057%=      5-min Rain = 0
KSP1 120505Z 33006KT M04/M11 A3028 RMK A01 T10401113  RH  058%=      5-min Rain = 0
KSP1 120510Z 33007KT M04/M11 A3029 RMK A01 T10421114  RH  058%=      5-min Rain = 0
KSP1 120515Z 34008KT M05/M12 A3028 RMK A01 T10461115  RH  059%=      5-min Rain = 0
KSP1 120520Z 33008KT M05/M12 A3028 RMK A01 T10481115  RH  060%=      5-min Rain = 0
KSP1 120525Z 33007KT M05/M11 A3028 RMK A01 T10471113  RH  061%=      5-min Rain = 0
KSP1 120530Z 34008KT M05/M11 A3028 RMK A01 T10451111  RH  061%=      5-min Rain = 0
KSP1 120535Z 34008KT M05/M11 A3028 RMK A01 T10471112  RH  061%=      5-min Rain = 0
KSP1 120540Z 34009KT M05/M11 A3028 RMK A01 T10501113  RH  062%=      5-min Rain = 0
KSP1 120545Z 34008KT M05/M11 A3028 RMK A01 T10501112  RH  063%=      5-min Rain = 0
KSP1 120550Z 36008KT M05/M11 A3027 RMK A01 T10471110  RH  062%=      5-min Rain = 0
KSP1 120555Z 00007KT M04/M11 A3028 RMK A01 T10431108  RH  061%=      5-min Rain = 0

Page generated in 0.0109 seconds.